Terminal Aerodrome Forecast
Issued by NWS Houston/Galveston TX

Home | Current Version | Previous Version | Text Only | Print | Product List | Glossary On
Versions: 1 2 3 4 5 6 7 8 9 10 11 12 13 14 15 16 17 18 19 20 21 22 23 24 25 26 27 28 29 30 31 32 33 34 35 36 37 38 39 40 41 42 43 44 45 46
000
FTUS44 KHGX 160520
TAFHOU
TAF
KHOU 160520Z 1606/1706 11006KT P6SM BKN060
     FM160830 35015G25KT 6SM -SHRA FEW008 OVC012
     FM161400 35019G29KT 6SM -RAPL BR SCT008 OVC012
     FM161630 36019G29KT 5SM -FZRAPL OVC015
     FM161900 36017G27KT P6SM -SNPL SCT025 OVC045
     FM162300 36016KT P6SM SCT045 OVC080
     FM170400 36014KT P6SM BKN100=

USA.gov is the U.S. government's official web portal to all federal, state and local government web resources and services.